createdAt,value
2019-05-16T00:00:32.993Z,88.81
2019-05-16T00:03:04.522Z,88.84
2019-05-16T00:05:48.484Z,88.68
2019-05-16T00:08:12.675Z,88.84
2019-05-16T00:10:42.540Z,88.99
2019-05-16T00:13:13.612Z,88.76
2019-05-16T00:15:47.978Z,89.34
2019-05-16T00:18:19.996Z,90.18
2019-05-16T00:20:51.333Z,90.17
2019-05-16T00:23:22.854Z,90.16
2019-05-16T00:25:54.234Z,90.20
2019-05-16T00:28:25.786Z,90.33
2019-05-16T00:30:59.138Z,90.43
2019-05-16T00:33:30.590Z,90.07
2019-05-16T00:36:05.332Z,89.94
2019-05-16T00:38:37.861Z,89.91
2019-05-16T00:41:09.305Z,89.74
2019-05-16T00:43:40.451Z,89.82
2019-05-16T00:46:12.078Z,89.84
2019-05-16T00:48:43.741Z,89.76
2019-05-16T00:51:18.142Z,89.75
2019-05-16T00:53:49.604Z,89.37
2019-05-16T00:56:21.488Z,88.87
2019-05-16T00:58:53.708Z,89.40
2019-05-16T01:01:28.162Z,89.33
2019-05-16T01:03:59.031Z,89.35
2019-05-16T01:06:30.416Z,89.33
2019-05-16T01:09:01.933Z,89.18
2019-05-16T01:11:35.128Z,88.33
2019-05-16T01:14:08.454Z,88.22
2019-05-16T01:16:39.580Z,88.47
2019-05-16T01:19:10.818Z,89.08
2019-05-16T01:21:42.272Z,89.26
2019-05-16T01:24:13.581Z,89.52
2019-05-16T01:26:48.364Z,89.52
2019-05-16T01:29:19.869Z,89.22
2019-05-16T01:31:51.509Z,89.24
2019-05-16T01:34:22.860Z,89.29
2019-05-16T01:36:54.066Z,88.87
2019-05-16T01:39:25.429Z,88.56
2019-05-16T01:41:58.653Z,88.01
2019-05-16T01:44:29.949Z,88.29
2019-05-16T01:47:01.200Z,88.26
2019-05-16T01:49:32.664Z,88.44
2019-05-16T01:52:03.739Z,88.88
2019-05-16T01:54:35.299Z,88.33
2019-05-16T01:57:08.095Z,88.43
2019-05-16T01:59:39.712Z,88.70
2019-05-16T02:02:11.144Z,89.41
2019-05-16T02:04:42.305Z,89.86
2019-05-16T02:07:13.871Z,88.76
2019-05-16T02:09:47.549Z,88.76
2019-05-16T02:12:19.493Z,89.34
2019-05-16T02:14:50.812Z,89.91
2019-05-16T02:17:22.125Z,89.44
2019-05-16T02:19:53.126Z,89.30
2019-05-16T02:22:24.106Z,89.08
2019-05-16T02:24:55.685Z,89.30
2019-05-16T02:27:28.766Z,89.36
2019-05-16T02:30:00.153Z,89.27
2019-05-16T02:32:31.527Z,88.03
2019-05-16T02:35:03.904Z,88.08
2019-05-16T02:37:35.411Z,88.28
2019-05-16T02:40:11.655Z,87.79
2019-05-16T02:42:41.965Z,87.90
2019-05-16T02:45:14.552Z,87.60
2019-05-16T02:47:45.681Z,87.86
2019-05-16T02:50:17.750Z,87.52
2019-05-16T02:52:51.816Z,86.97
2019-05-16T02:55:22.206Z,87.51
2019-05-16T02:57:53.416Z,87.62
2019-05-16T03:00:35.349Z,87.23
2019-05-16T03:03:07.926Z,87.02
2019-05-16T03:05:41.848Z,86.54
2019-05-16T03:08:13.670Z,86.85
2019-05-16T03:10:45.482Z,87.01
2019-05-16T03:13:18.053Z,86.62
2019-05-16T03:15:51.680Z,87.82
2019-05-16T03:18:24.603Z,87.50
2019-05-16T03:21:00.563Z,87.85
2019-05-16T03:23:31.060Z,87.53
2019-05-16T03:26:03.378Z,88.03
2019-05-16T03:28:34.747Z,87.48
2019-05-16T03:31:06.409Z,87.67
2019-05-16T03:33:43.491Z,87.65
2019-05-16T03:36:14.634Z,88.16
2019-05-16T03:38:44.094Z,88.90
2019-05-16T03:41:15.028Z,88.58
2019-05-16T03:43:46.212Z,89.01
2019-05-16T03:46:17.773Z,88.89
2019-05-16T03:48:51.832Z,88.46
2019-05-16T03:51:22.247Z,88.68
2019-05-16T03:53:53.388Z,88.95
2019-05-16T03:56:24.558Z,88.71
2019-05-16T03:58:55.619Z,88.53
2019-05-16T04:01:26.924Z,88.47
2019-05-16T04:04:01.404Z,88.10
2019-05-16T04:06:31.344Z,88.13
2019-05-16T04:09:02.391Z,88.37
2019-05-16T04:11:34.080Z,87.90
2019-05-16T04:14:05.212Z,87.95
2019-05-16T04:16:36.782Z,88.08
2019-05-16T04:19:11.220Z,88.27
2019-05-16T04:21:42.210Z,87.42
2019-05-16T04:24:14.049Z,87.25
2019-05-16T04:26:45.415Z,86.99
2019-05-16T04:29:16.659Z,87.55
2019-05-16T04:31:50.890Z,87.15
2019-05-16T04:34:21.344Z,87.22
2019-05-16T04:36:52.299Z,86.87
2019-05-16T04:39:23.621Z,87.30
2019-05-16T04:41:54.863Z,87.41
2019-05-16T04:44:26.038Z,86.94
2019-05-16T04:46:57.126Z,86.69
2019-05-16T04:49:31.668Z,86.85
2019-05-16T04:52:01.091Z,86.70
2019-05-16T04:54:32.265Z,86.80
2019-05-16T04:57:03.187Z,86.52
2019-05-16T04:59:34.007Z,85.95
2019-05-16T05:02:05.178Z,86.34
2019-05-16T05:04:36.244Z,86.38
2019-05-16T05:07:10.866Z,87.13
2019-05-16T05:09:41.040Z,87.51
2019-05-16T05:12:12.434Z,87.08
2019-05-16T05:14:43.927Z,86.98
2019-05-16T05:17:15.373Z,86.15
2019-05-16T05:19:46.922Z,86.45
2019-05-16T05:22:19.910Z,85.79
2019-05-16T05:24:51.812Z,86.05
2019-05-16T05:27:22.978Z,85.75
2019-05-16T05:29:54.365Z,85.58
2019-05-16T05:32:25.772Z,84.68
2019-05-16T05:34:57.050Z,83.87
2019-05-16T05:37:29.754Z,83.32
2019-05-16T05:40:01.283Z,82.60
2019-05-16T05:42:32.465Z,82.62
2019-05-16T05:45:03.903Z,82.58
2019-05-16T05:47:35.169Z,83.28
2019-05-16T05:50:06.908Z,82.35
2019-05-16T05:52:40.820Z,83.36
2019-05-16T05:55:11.178Z,82.28
2019-05-16T05:57:42.513Z,82.86
2019-05-16T06:00:14.039Z,83.29
2019-05-16T06:02:45.290Z,82.46
2019-05-16T06:05:16.380Z,81.48
2019-05-16T06:07:47.456Z,82.48
2019-05-16T06:10:19.891Z,82.27
2019-05-16T06:12:51.177Z,82.64
2019-05-16T06:15:23.331Z,82.28
2019-05-16T06:17:54.352Z,82.11
2019-05-16T06:20:25.453Z,81.61
2019-05-16T06:22:56.367Z,81.26
2019-05-16T06:25:31.160Z,80.30
2019-05-16T06:28:00.293Z,79.32
2019-05-16T06:30:31.488Z,78.57
2019-05-16T06:33:02.653Z,76.42
2019-05-16T06:35:33.933Z,77.61
2019-05-16T06:38:05.129Z,77.70
2019-05-16T06:40:36.377Z,78.44
2019-05-16T06:43:07.566Z,78.40
2019-05-16T06:45:40.239Z,78.61
2019-05-16T06:48:11.669Z,79.83
2019-05-16T06:50:43.454Z,80.02
2019-05-16T06:53:14.553Z,79.79
2019-05-16T06:55:45.590Z,79.34
2019-05-16T06:58:17.284Z,79.01
2019-05-16T07:00:51.721Z,78.90
2019-05-16T07:03:21.655Z,78.18
2019-05-16T07:05:52.803Z,77.52
2019-05-16T07:08:24.067Z,77.03
2019-05-16T07:10:55.590Z,77.10
2019-05-16T07:13:26.850Z,78.14
2019-05-16T07:16:00.299Z,77.13
2019-05-16T07:18:31.251Z,77.13
2019-05-16T07:21:02.512Z,75.65
2019-05-16T07:23:34.637Z,74.83
2019-05-16T07:26:05.842Z,75.21
2019-05-16T07:28:37.196Z,75.06
2019-05-16T07:31:17.721Z,75.70
2019-05-16T07:33:41.673Z,73.12
2019-05-16T07:36:15.832Z,72.30
2019-05-16T07:38:47.396Z,74.41
2019-05-16T07:41:20.449Z,74.48
2019-05-16T07:43:51.527Z,74.28
2019-05-16T07:46:22.698Z,73.02
2019-05-16T07:48:53.906Z,73.02
2019-05-16T07:51:24.986Z,72.73
2019-05-16T07:53:56.174Z,71.41
2019-05-16T07:56:27.436Z,71.23
2019-05-16T07:59:00.903Z,71.23
2019-05-16T08:01:32.027Z,70.58
2019-05-16T08:04:03.329Z,69.08
2019-05-16T08:06:34.718Z,69.08
2019-05-16T08:09:07.805Z,67.21
2019-05-16T08:11:40.856Z,67.03
2019-05-16T08:14:12.175Z,62.87
2019-05-16T08:16:43.244Z,62.33
2019-05-16T08:19:14.562Z,62.08
2019-05-16T08:21:45.606Z,63.42
2019-05-16T08:24:16.784Z,65.40
2019-05-16T08:26:50.537Z,66.27
2019-05-16T08:29:21.998Z,67.08
2019-05-16T08:31:53.426Z,67.41
2019-05-16T08:34:24.895Z,66.93
2019-05-16T08:36:55.773Z,66.93
2019-05-16T08:39:26.996Z,66.40
2019-05-16T08:44:32.533Z,66.94
2019-05-16T08:47:06.162Z,65.71
2019-05-16T08:49:36.638Z,64.91
2019-05-16T08:50:09.653Z,66.40
2019-05-16T08:52:07.608Z,67.21
2019-05-16T08:54:43.851Z,65.17
2019-05-16T08:57:25.832Z,63.89
2019-05-16T08:59:45.282Z,63.89
2019-05-16T09:02:16.563Z,63.76
2019-05-16T09:04:53.120Z,64.28
2019-05-16T09:09:53.840Z,64.85
2019-05-16T09:10:32.874Z,64.14
2019-05-16T09:12:27.842Z,65.67
2019-05-16T09:15:00.950Z,63.46
2019-05-16T09:17:32.164Z,65.15
2019-05-16T09:20:03.557Z,64.62
2019-05-16T09:22:37.387Z,64.67
2019-05-16T09:25:08.285Z,64.81
2019-05-16T09:27:39.573Z,65.26
2019-05-16T09:30:11.072Z,65.09
2019-05-16T09:32:42.969Z,66.76
2019-05-16T09:35:17.213Z,66.76
2019-05-16T09:37:47.687Z,66.58
2019-05-16T09:40:19.873Z,64.89
2019-05-16T09:42:51.245Z,66.02
2019-05-16T09:45:22.899Z,66.85
2019-05-16T09:47:57.100Z,66.95
2019-05-16T09:50:26.961Z,65.56
2019-05-16T09:52:58.104Z,65.00
2019-05-16T09:55:29.187Z,66.33
2019-05-16T09:58:00.184Z,66.16
2019-05-16T10:00:32.208Z,67.64
2019-05-16T10:03:03.453Z,66.11
2019-05-16T10:05:37.181Z,66.14
2019-05-16T10:08:08.801Z,65.73
2019-05-16T10:10:39.719Z,66.57
2019-05-16T10:13:11.034Z,67.55
2019-05-16T10:15:41.879Z,67.29
2019-05-16T10:18:12.842Z,67.00
2019-05-16T10:20:44.037Z,66.74
2019-05-16T10:23:18.022Z,67.49
2019-05-16T10:25:48.327Z,67.57
2019-05-16T10:28:20.119Z,64.86
2019-05-16T10:30:51.848Z,67.16
2019-05-16T10:33:23.222Z,69.05
2019-05-16T10:35:54.377Z,67.23
2019-05-16T10:38:28.488Z,66.17
2019-05-16T10:40:58.107Z,65.60
2019-05-16T10:43:28.991Z,66.36
2019-05-16T10:46:00.047Z,66.33
2019-05-16T10:48:30.860Z,65.47
2019-05-16T10:51:02.084Z,64.32
2019-05-16T10:53:57.553Z,64.05
2019-05-16T10:56:07.730Z,63.34
2019-05-16T10:59:03.812Z,63.60
2019-05-16T11:01:24.358Z,64.05
2019-05-16T11:03:44.226Z,65.38
2019-05-16T11:06:25.414Z,65.92
2019-05-16T11:08:48.487Z,66.75
2019-05-16T11:11:20.006Z,67.22
2019-05-16T11:13:51.510Z,67.77
2019-05-16T11:16:22.690Z,68.98
2019-05-16T11:18:53.773Z,69.91
2019-05-16T11:21:26.724Z,71.84
2019-05-16T11:23:58.579Z,74.43
2019-05-16T11:26:30.301Z,81.59
2019-05-16T11:29:01.565Z,81.59
2019-05-16T11:31:33.230Z,85.39
2019-05-16T11:34:04.674Z,85.39
2019-05-16T11:36:37.600Z,87.42
2019-05-16T11:39:09.671Z,89.91
2019-05-16T11:41:41.187Z,90.76
2019-05-16T11:44:12.524Z,91.66
2019-05-16T11:46:44.064Z,91.44
2019-05-16T11:49:16.658Z,91.29
2019-05-16T11:51:48.327Z,91.84
2019-05-16T11:54:20.381Z,92.30
2019-05-16T11:56:51.526Z,93.35
2019-05-16T11:59:22.891Z,93.66
2019-05-16T12:01:54.146Z,89.24
2019-05-16T12:04:27.903Z,86.66
2019-05-16T12:06:58.627Z,87.06
2019-05-16T12:09:33.297Z,88.27
2019-05-16T12:12:04.163Z,89.09
2019-05-16T12:14:36.708Z,89.46
2019-05-16T12:17:08.203Z,89.29
2019-05-16T12:19:44.071Z,89.23
2019-05-16T12:22:11.939Z,91.05
2019-05-16T12:24:43.023Z,90.41
2019-05-16T12:27:16.761Z,89.29
2019-05-16T12:29:52.572Z,87.09
2019-05-16T12:32:19.918Z,87.61
2019-05-16T12:34:50.873Z,86.80
2019-05-16T12:37:22.032Z,86.61
2019-05-16T12:39:53.199Z,84.98
2019-05-16T12:42:24.168Z,84.32
2019-05-16T12:44:56.308Z,84.32
2019-05-16T12:47:27.515Z,84.77
2019-05-16T12:49:58.806Z,83.01
2019-05-16T12:52:29.977Z,82.16
2019-05-16T12:55:01.281Z,82.16
2019-05-16T12:57:32.686Z,82.63
2019-05-16T13:00:04.137Z,82.63
2019-05-16T13:02:37.817Z,81.99
2019-05-16T13:05:08.579Z,81.20
2019-05-16T13:07:39.826Z,80.89
2019-05-16T13:10:11.161Z,79.81
2019-05-16T13:12:42.440Z,79.21
2019-05-16T13:15:18.020Z,78.45
2019-05-16T13:17:47.630Z,78.41
2019-05-16T13:20:18.794Z,77.20
2019-05-16T13:22:49.957Z,77.20
2019-05-16T13:25:21.180Z,77.40
2019-05-16T13:27:52.294Z,77.40
2019-05-16T13:30:26.793Z,78.35
2019-05-16T13:32:57.595Z,76.21
2019-05-16T13:35:29.010Z,77.86
2019-05-16T13:38:00.266Z,77.81
2019-05-16T13:40:31.257Z,76.36
2019-05-16T13:43:02.456Z,76.77
2019-05-16T13:45:33.628Z,76.90
2019-05-16T13:48:07.823Z,76.75
2019-05-16T13:50:39.917Z,76.39
2019-05-16T13:53:10.490Z,76.89
2019-05-16T13:55:41.677Z,76.21
2019-05-16T13:58:13.249Z,75.66
2019-05-16T14:00:44.495Z,75.91
2019-05-16T14:03:17.993Z,76.42
2019-05-16T14:05:48.844Z,75.43
2019-05-16T14:08:20.460Z,75.43
2019-05-16T14:10:52.853Z,75.53
2019-05-16T14:13:24.816Z,78.19
2019-05-16T14:15:56.567Z,79.06
2019-05-16T14:18:30.491Z,78.46
2019-05-16T14:21:02.937Z,79.01
2019-05-16T14:23:38.306Z,81.33
2019-05-16T14:26:11.132Z,81.33
2019-05-16T14:28:44.536Z,83.18
2019-05-16T14:31:17.401Z,83.57
2019-05-16T14:33:49.396Z,82.45
2019-05-16T14:36:21.249Z,82.39
2019-05-16T14:38:57.524Z,83.03
2019-05-16T14:41:28.888Z,82.76
2019-05-16T14:44:01.331Z,81.96
2019-05-16T14:46:32.528Z,81.96
2019-05-16T14:49:03.918Z,82.11
2019-05-16T14:51:37.945Z,82.17
2019-05-16T14:54:07.893Z,81.44
2019-05-16T14:56:38.977Z,82.63
2019-05-16T14:59:10.336Z,82.63
2019-05-16T15:01:41.525Z,79.79
2019-05-16T15:04:12.829Z,79.79
2019-05-16T15:06:44.042Z,80.13
2019-05-16T15:09:17.396Z,80.11
2019-05-16T15:11:48.242Z,79.42
2019-05-16T15:14:19.133Z,77.86
2019-05-16T15:16:51.988Z,78.44
2019-05-16T15:19:23.247Z,78.20
2019-05-16T15:21:57.054Z,76.06
2019-05-16T15:24:29.301Z,75.08
2019-05-16T15:27:01.975Z,75.08
2019-05-16T15:29:33.479Z,74.69
2019-05-16T15:32:06.793Z,73.21
2019-05-16T15:34:38.036Z,72.07
2019-05-16T15:37:09.491Z,72.51
2019-05-16T15:39:40.447Z,72.51
2019-05-16T15:42:11.263Z,73.40
2019-05-16T15:44:42.393Z,72.09
2019-05-16T15:47:13.399Z,70.55
2019-05-16T15:49:47.564Z,70.86
2019-05-16T15:52:19.133Z,71.64
2019-05-16T15:54:51.457Z,72.27
2019-05-16T15:57:22.541Z,72.60
2019-05-16T15:59:53.807Z,73.91
2019-05-16T16:02:27.149Z,73.52
2019-05-16T16:04:57.654Z,74.04
2019-05-16T16:07:28.745Z,74.04
2019-05-16T16:09:59.604Z,74.27
2019-05-16T16:12:30.662Z,74.26
2019-05-16T16:15:07.385Z,74.41
2019-05-16T16:17:38.291Z,73.94
2019-05-16T16:20:10.537Z,74.82
2019-05-16T16:22:41.831Z,74.74
2019-05-16T16:25:13.082Z,74.43
2019-05-16T16:27:44.497Z,74.19
2019-05-16T16:30:18.409Z,75.22
2019-05-16T16:32:48.392Z,74.77
2019-05-16T16:35:21.081Z,74.64
2019-05-16T16:37:52.616Z,74.27
2019-05-16T16:40:23.629Z,75.08
2019-05-16T16:42:56.807Z,74.76
2019-05-16T16:45:27.636Z,75.64
2019-05-16T16:47:58.790Z,74.17
2019-05-16T16:50:29.739Z,74.59
2019-05-16T16:53:01.845Z,75.27
2019-05-16T16:55:32.950Z,74.73
2019-05-16T16:58:04.341Z,75.01
2019-05-16T17:00:37.833Z,75.24
2019-05-16T17:03:10.567Z,75.93
2019-05-16T17:05:41.705Z,75.93
2019-05-16T17:08:12.769Z,75.17
2019-05-16T17:10:43.878Z,76.11
2019-05-16T17:13:16.950Z,74.52
2019-05-16T17:15:47.924Z,74.20
2019-05-16T17:18:19.097Z,74.73
2019-05-16T17:20:50.199Z,74.73
2019-05-16T17:23:21.300Z,75.58
2019-05-16T17:25:52.147Z,75.57
2019-05-16T17:28:23.418Z,76.03
2019-05-16T17:30:56.601Z,76.03
2019-05-16T17:33:28.606Z,75.02
2019-05-16T17:35:59.906Z,77.64
2019-05-16T17:38:31.240Z,77.64
2019-05-16T17:41:02.422Z,76.94
2019-05-16T17:43:33.401Z,77.93
2019-05-16T17:46:07.018Z,78.90
2019-05-16T17:48:38.291Z,77.39
2019-05-16T17:51:11.074Z,79.15
2019-05-16T17:53:42.374Z,79.61
2019-05-16T17:56:13.789Z,79.80
2019-05-16T17:58:44.868Z,80.08
2019-05-16T18:01:17.152Z,79.99
2019-05-16T18:03:48.400Z,80.75
2019-05-16T18:06:19.591Z,80.30
2019-05-16T18:08:50.826Z,80.60
2019-05-16T18:11:22.156Z,79.94
2019-05-16T18:13:54.315Z,80.48
2019-05-16T18:16:25.547Z,80.78
2019-05-16T18:18:57.472Z,81.53
2019-05-16T18:21:28.448Z,80.38
2019-05-16T18:23:59.697Z,80.64
2019-05-16T18:26:31.000Z,81.18
2019-05-16T18:29:01.808Z,81.49
2019-05-16T18:31:32.923Z,80.80
2019-05-16T18:34:04.229Z,81.57
2019-05-16T18:36:35.362Z,81.04
2019-05-16T18:39:08.541Z,81.12
2019-05-16T18:41:39.611Z,80.74
2019-05-16T18:44:11.416Z,80.77
2019-05-16T18:46:42.516Z,81.33
2019-05-16T18:49:13.489Z,80.85
2019-05-16T18:51:46.567Z,81.56
2019-05-16T18:54:17.517Z,81.63
2019-05-16T18:56:48.907Z,81.37
2019-05-16T18:59:19.825Z,81.33
2019-05-16T19:01:50.672Z,81.85
2019-05-16T19:04:21.852Z,81.47
2019-05-16T19:06:52.860Z,82.20
2019-05-16T19:09:23.872Z,82.31
2019-05-16T19:11:56.588Z,82.29
2019-05-16T19:14:28.061Z,81.70
2019-05-16T19:16:59.189Z,81.65
2019-05-16T19:19:30.378Z,81.41
2019-05-16T19:22:01.336Z,81.25
2019-05-16T19:24:32.300Z,81.78
2019-05-16T19:27:03.368Z,81.71
2019-05-16T19:29:36.843Z,82.42
2019-05-16T19:32:08.716Z,82.40
2019-05-16T19:34:39.670Z,82.61
2019-05-16T19:37:10.524Z,82.02
2019-05-16T19:39:41.917Z,82.14
2019-05-16T19:42:13.638Z,81.66
2019-05-16T19:44:46.430Z,82.16
2019-05-16T19:47:17.691Z,82.35
2019-05-16T19:49:48.544Z,83.09
2019-05-16T19:52:19.931Z,83.22
2019-05-16T19:54:51.283Z,82.87
2019-05-16T19:57:22.422Z,83.16
2019-05-16T19:59:53.600Z,82.80
2019-05-16T20:02:24.633Z,82.39
2019-05-16T20:04:56.938Z,82.23
2019-05-16T20:07:28.114Z,82.57
2019-05-16T20:09:59.045Z,83.03
2019-05-16T20:12:30.293Z,83.27
2019-05-16T20:15:08.001Z,83.77
2019-05-16T20:17:36.441Z,83.44
2019-05-16T20:20:08.146Z,83.66
2019-05-16T20:22:40.325Z,83.94
2019-05-16T20:25:11.778Z,83.12
2019-05-16T20:27:42.570Z,83.07
2019-05-16T20:30:13.896Z,83.12
2019-05-16T20:32:45.096Z,83.09
2019-05-16T20:35:17.482Z,83.66
2019-05-16T20:37:48.685Z,83.62
2019-05-16T20:40:20.939Z,84.25
2019-05-16T20:42:52.050Z,84.25
2019-05-16T20:45:23.244Z,84.23
2019-05-16T20:48:07.930Z,84.74
2019-05-16T20:50:27.743Z,84.74
2019-05-16T20:52:59.134Z,85.79
2019-05-16T20:55:30.267Z,85.74
2019-05-16T20:58:01.588Z,84.93
2019-05-16T21:00:33.033Z,84.26
2019-05-16T21:03:03.971Z,84.30
2019-05-16T21:05:37.907Z,85.38
2019-05-16T21:08:08.247Z,85.34
2019-05-16T21:10:39.505Z,85.18
2019-05-16T21:13:10.818Z,85.79
2019-05-16T21:15:42.306Z,85.70
2019-05-16T21:18:13.375Z,85.79
2019-05-16T21:20:46.815Z,85.69
2019-05-16T21:23:19.563Z,85.45
2019-05-16T21:25:50.416Z,84.78
2019-05-16T21:28:21.984Z,85.72
2019-05-16T21:30:52.963Z,85.47
2019-05-16T21:33:24.426Z,86.42
2019-05-16T21:35:56.503Z,86.25
2019-05-16T21:38:27.896Z,85.92
2019-05-16T21:40:59.197Z,85.32
2019-05-16T21:43:30.273Z,85.29
2019-05-16T21:46:02.263Z,85.57
2019-05-16T21:48:33.549Z,85.75
2019-05-16T21:51:05.070Z,85.93
2019-05-16T21:53:36.757Z,86.37
2019-05-16T21:56:08.225Z,86.31
2019-05-16T21:58:39.816Z,86.72
2019-05-16T22:01:14.144Z,86.18
2019-05-16T22:03:47.177Z,85.87
2019-05-16T22:06:18.353Z,86.09
2019-05-16T22:08:49.856Z,86.47
2019-05-16T22:11:21.523Z,86.76
2019-05-16T22:13:56.901Z,86.59
2019-05-16T22:16:27.970Z,86.67
2019-05-16T22:18:59.628Z,86.72
2019-05-16T22:21:31.149Z,86.81
2019-05-16T22:24:02.671Z,86.25
2019-05-16T22:26:34.074Z,86.57
2019-05-16T22:29:06.920Z,86.81
2019-05-16T22:31:38.439Z,86.94
2019-05-16T22:34:09.581Z,86.89
2019-05-16T22:36:41.049Z,86.87
2019-05-16T22:39:12.215Z,86.73
2019-05-16T22:41:43.753Z,86.38
2019-05-16T22:44:17.609Z,86.88
2019-05-16T22:46:47.993Z,86.93
2019-05-16T22:49:19.066Z,86.70
2019-05-16T22:51:50.918Z,86.79
2019-05-16T22:54:22.495Z,86.28
2019-05-16T22:56:53.656Z,86.59
2019-05-16T22:59:27.076Z,86.44
2019-05-16T23:01:58.262Z,86.36
2019-05-16T23:04:29.585Z,86.57
2019-05-16T23:07:01.147Z,86.70
2019-05-16T23:09:32.228Z,86.84
2019-05-16T23:12:03.868Z,86.66
2019-05-16T23:14:35.146Z,86.67
2019-05-16T23:17:06.872Z,86.52
2019-05-16T23:19:38.568Z,86.31
2019-05-16T23:22:10.096Z,86.51
2019-05-16T23:24:41.448Z,87.07
2019-05-16T23:27:13.915Z,87.06
2019-05-16T23:29:47.270Z,86.81
2019-05-16T23:32:18.958Z,86.82
2019-05-16T23:34:50.421Z,86.77
2019-05-16T23:37:22.441Z,86.71
2019-05-16T23:39:53.932Z,86.60
2019-05-16T23:42:26.356Z,86.65
2019-05-16T23:44:59.817Z,86.68
2019-05-16T23:47:30.819Z,86.70
2019-05-16T23:50:02.320Z,87.45
2019-05-16T23:52:33.183Z,87.35
2019-05-16T23:55:04.479Z,86.80
2019-05-16T23:57:37.378Z,86.62
